createdAt,value
2023-05-21T00:00:31.054Z,100527.63
2023-05-21T00:02:59.460Z,100528.16
2023-05-21T00:05:27.035Z,100528.03
2023-05-21T00:07:55.189Z,100525.69
2023-05-21T00:10:22.857Z,100522.84
2023-05-21T00:12:50.404Z,100526.13
2023-05-21T00:15:17.699Z,100516.91
2023-05-21T00:17:46.211Z,100516.63
2023-05-21T00:20:13.975Z,100512.66
2023-05-21T00:22:42.555Z,100503.13
2023-05-21T00:25:13.136Z,100514.63
2023-05-21T00:27:40.282Z,100513.00
2023-05-21T00:30:08.110Z,100491.09
2023-05-21T00:32:38.011Z,100511.63
2023-05-21T00:35:06.338Z,100506.03
2023-05-21T00:37:34.547Z,100509.63
2023-05-21T00:40:02.881Z,100503.84
2023-05-21T00:42:32.801Z,100504.91
2023-05-21T00:45:00.738Z,100510.50
2023-05-21T00:47:29.785Z,100502.66
2023-05-21T00:49:57.491Z,100510.72
2023-05-21T00:52:27.155Z,100503.00
2023-05-21T00:54:55.614Z,100519.13
2023-05-21T00:57:25.583Z,100509.66
2023-05-21T00:59:53.637Z,100507.38
2023-05-21T01:02:24.441Z,100508.31
2023-05-21T01:04:55.899Z,100514.97
2023-05-21T01:07:23.444Z,100512.75
2023-05-21T01:09:50.627Z,100511.00
2023-05-21T01:12:19.157Z,100511.34
2023-05-21T01:14:46.693Z,100506.09
2023-05-21T01:17:14.485Z,100512.81
2023-05-21T01:19:44.759Z,100512.06
2023-05-21T01:22:14.468Z,100510.06
2023-05-21T01:24:47.775Z,100508.41
2023-05-21T01:27:15.149Z,100512.81
2023-05-21T01:29:42.674Z,100509.97
2023-05-21T01:32:43.035Z,100515.38
2023-05-21T01:35:14.122Z,100495.66
2023-05-21T01:38:13.430Z,100514.50
2023-05-21T01:41:14.385Z,100513.63
2023-05-21T01:43:44.289Z,100510.28
2023-05-21T01:46:16.670Z,100510.47
2023-05-21T01:48:44.795Z,100513.31
2023-05-21T01:51:12.584Z,100513.50
2023-05-21T01:53:41.419Z,100511.25
2023-05-21T01:56:08.820Z,100507.19
2023-05-21T01:58:36.263Z,100515.16
2023-05-21T02:01:04.745Z,100510.91
2023-05-21T02:03:32.157Z,100506.97
2023-05-21T02:05:59.438Z,100498.66
2023-05-21T02:08:27.456Z,100504.16
2023-05-21T02:10:55.783Z,100503.19
2023-05-21T02:13:25.099Z,100507.88
2023-05-21T02:15:54.949Z,100504.41
2023-05-21T02:18:23.597Z,100506.53
2023-05-21T02:20:50.696Z,100506.22
2023-05-21T02:23:17.908Z,100509.94
2023-05-21T02:25:45.081Z,100516.34
2023-05-21T02:28:12.940Z,100504.56
2023-05-21T02:30:40.157Z,100498.97
2023-05-21T02:33:09.328Z,100514.91
2023-05-21T02:35:36.956Z,100511.00
2023-05-21T02:38:04.319Z,100514.75
2023-05-21T02:40:33.161Z,100516.81
2023-05-21T02:43:00.662Z,100518.78
2023-05-21T02:45:32.265Z,100504.88
2023-05-21T02:47:59.509Z,100519.47
2023-05-21T02:50:26.824Z,100513.19
2023-05-21T02:52:59.832Z,100524.97
2023-05-21T02:55:27.979Z,100520.84
2023-05-21T02:57:55.075Z,100523.41
2023-05-21T03:00:22.391Z,100514.81
2023-05-21T03:02:50.072Z,100515.25
2023-05-21T03:05:17.472Z,100513.03
2023-05-21T03:07:45.123Z,100512.84
2023-05-21T03:10:12.419Z,100520.13
2023-05-21T03:12:39.584Z,100521.16
2023-05-21T03:15:07.183Z,100518.09
2023-05-21T03:17:35.216Z,100520.03
2023-05-21T03:20:05.351Z,100518.41
2023-05-21T03:22:33.114Z,100515.78
2023-05-21T03:25:01.975Z,100517.97
2023-05-21T03:27:34.781Z,100522.91
2023-05-21T03:30:06.814Z,100522.59
2023-05-21T03:32:41.857Z,100524.31
2023-05-21T03:35:09.327Z,100522.59
2023-05-21T03:37:36.574Z,100521.00
2023-05-21T03:40:04.751Z,100522.22
2023-05-21T03:42:32.214Z,100524.50
2023-05-21T03:44:59.419Z,100523.59
2023-05-21T03:47:49.638Z,100527.91
2023-05-21T03:50:17.168Z,100533.09
2023-05-21T03:52:44.424Z,100530.44
2023-05-21T03:55:11.979Z,100525.06
2023-05-21T03:57:41.459Z,100532.66
2023-05-21T04:00:09.215Z,100527.34
2023-05-21T04:02:43.814Z,100509.41
2023-05-21T04:05:14.436Z,100528.72
2023-05-21T04:07:43.078Z,100529.28
2023-05-21T04:10:10.606Z,100529.44
2023-05-21T04:12:37.757Z,100530.22
2023-05-21T04:15:05.860Z,100531.19
2023-05-21T04:17:34.662Z,100522.84
2023-05-21T04:20:02.632Z,100529.88
2023-05-21T04:22:32.337Z,100526.44
2023-05-21T04:24:59.807Z,100520.94
2023-05-21T04:27:31.770Z,100525.41
2023-05-21T04:29:59.013Z,100528.50
2023-05-21T04:32:26.310Z,100522.69
2023-05-21T04:34:53.511Z,100527.19
2023-05-21T04:37:20.919Z,100530.97
2023-05-21T04:39:48.217Z,100517.38
2023-05-21T04:42:15.415Z,100525.06
2023-05-21T04:44:44.527Z,100505.91
2023-05-21T04:47:15.018Z,100519.19
2023-05-21T04:49:42.791Z,100519.72
2023-05-21T04:52:09.952Z,100514.44
2023-05-21T04:54:39.096Z,100526.00
2023-05-21T04:57:06.833Z,100522.25
2023-05-21T04:59:35.648Z,100524.03
2023-05-21T05:02:02.930Z,100522.69
2023-05-21T05:04:30.079Z,100535.75
2023-05-21T05:06:57.335Z,100538.22
2023-05-21T05:09:25.364Z,100540.72
2023-05-21T05:11:53.339Z,100535.19
2023-05-21T05:14:20.623Z,100536.97
2023-05-21T05:16:50.657Z,100534.00
2023-05-21T05:19:17.971Z,100535.13
2023-05-21T05:21:45.287Z,100533.41
2023-05-21T05:24:12.707Z,100531.13
2023-05-21T05:26:39.987Z,100532.59
2023-05-21T05:29:07.098Z,100540.59
2023-05-21T05:31:34.477Z,100544.41
2023-05-21T05:34:02.206Z,100550.28
2023-05-21T05:36:29.894Z,100541.50
2023-05-21T05:38:57.079Z,100539.28
2023-05-21T05:41:24.409Z,100539.44
2023-05-21T05:43:51.715Z,100543.88
2023-05-21T05:46:21.125Z,100536.91
2023-05-21T05:48:48.280Z,100545.16
2023-05-21T05:51:15.553Z,100544.94
2023-05-21T05:53:42.987Z,100548.03
2023-05-21T05:56:11.514Z,100542.56
2023-05-21T05:58:39.384Z,100541.16
2023-05-21T06:01:12.169Z,100546.09
2023-05-21T06:03:40.257Z,100546.88
2023-05-21T06:06:13.006Z,100543.91
2023-05-21T06:08:40.727Z,100546.13
2023-05-21T06:11:08.026Z,100547.38
2023-05-21T06:13:35.710Z,100551.31
2023-05-21T06:16:04.260Z,100539.16
2023-05-21T06:18:31.442Z,100548.09
2023-05-21T06:20:58.635Z,100546.25
2023-05-21T06:23:27.448Z,100536.78
2023-05-21T06:25:55.353Z,100534.03
2023-05-21T06:28:22.537Z,100539.19
2023-05-21T06:30:50.318Z,100533.06
2023-05-21T06:33:17.788Z,100537.88
2023-05-21T06:35:45.184Z,100531.25
2023-05-21T06:38:13.113Z,100539.50
2023-05-21T06:40:40.601Z,100537.56
2023-05-21T06:43:12.343Z,100542.84
2023-05-21T06:45:39.768Z,100533.56
2023-05-21T06:48:29.884Z,100531.88
2023-05-21T06:50:57.123Z,100533.81
2023-05-21T06:53:24.382Z,100533.56
2023-05-21T06:55:53.979Z,100539.19
2023-05-21T06:58:31.370Z,100538.81
2023-05-21T07:01:00.079Z,100540.50
2023-05-21T07:03:28.044Z,100531.44
2023-05-21T07:05:56.037Z,100535.22
2023-05-21T07:08:23.236Z,100534.56
2023-05-21T07:10:51.007Z,100531.25
2023-05-21T07:13:18.768Z,100529.94
2023-05-21T07:15:47.521Z,100543.19
2023-05-21T07:18:14.829Z,100539.22
2023-05-21T07:20:42.131Z,100531.75
2023-05-21T07:23:13.101Z,100546.28
2023-05-21T07:25:40.343Z,100545.63
2023-05-21T07:28:07.527Z,100546.81
2023-05-21T07:30:35.985Z,100539.84
2023-05-21T07:33:06.591Z,100545.78
2023-05-21T07:35:33.855Z,100540.34
2023-05-21T07:38:01.163Z,100544.00
2023-05-21T07:40:28.323Z,100542.50
2023-05-21T07:42:56.419Z,100541.19
2023-05-21T07:45:29.067Z,100548.16
2023-05-21T07:47:56.817Z,100538.19
2023-05-21T07:50:25.808Z,100538.63
2023-05-21T07:52:53.599Z,100534.13
2023-05-21T07:55:21.885Z,100544.47
2023-05-21T07:57:49.600Z,100539.06
2023-05-21T08:00:19.310Z,100535.59
2023-05-21T08:02:53.360Z,100536.50
2023-05-21T08:05:21.673Z,100535.19
2023-05-21T08:07:49.432Z,100543.66
2023-05-21T08:10:19.132Z,100546.38
2023-05-21T08:12:48.232Z,100546.78
2023-05-21T08:15:15.377Z,100537.44
2023-05-21T08:17:46.059Z,100540.31
2023-05-21T08:20:14.506Z,100548.31
2023-05-21T08:22:43.874Z,100524.63
2023-05-21T08:25:11.930Z,100526.91
2023-05-21T08:27:39.355Z,100532.59
2023-05-21T08:30:07.568Z,100546.13
2023-05-21T08:32:35.419Z,100536.28
2023-05-21T08:35:02.913Z,100528.66
2023-05-21T08:37:46.279Z,100534.03
2023-05-21T08:40:39.545Z,100537.59
2023-05-21T08:43:06.702Z,100533.41
2023-05-21T08:45:44.667Z,100534.91
2023-05-21T08:48:12.422Z,100528.88
2023-05-21T08:50:41.661Z,100525.53
2023-05-21T08:53:26.610Z,100530.72
2023-05-21T08:55:57.641Z,100532.44
2023-05-21T08:58:33.884Z,100533.44
2023-05-21T09:01:01.993Z,100532.63
2023-05-21T09:03:33.161Z,100541.50
2023-05-21T09:06:01.195Z,100532.38
2023-05-21T09:08:38.979Z,100516.13
2023-05-21T09:11:19.369Z,100535.00
2023-05-21T09:13:54.294Z,100534.06
2023-05-21T09:16:31.097Z,100531.41
2023-05-21T09:18:58.329Z,100519.34
2023-05-21T09:21:33.374Z,100534.38
2023-05-21T09:24:06.581Z,100526.19
2023-05-21T09:26:34.287Z,100524.22
2023-05-21T09:29:04.952Z,100527.25
2023-05-21T09:31:33.050Z,100533.63
2023-05-21T09:34:01.489Z,100529.25
2023-05-21T09:36:30.257Z,100536.63
2023-05-21T09:39:00.121Z,100532.31
2023-05-21T09:41:35.657Z,100533.44
2023-05-21T09:44:04.664Z,100510.69
2023-05-21T09:46:42.984Z,100536.72
2023-05-21T09:49:28.495Z,100538.66
2023-05-21T09:51:58.360Z,100529.91
2023-05-21T09:54:30.937Z,100523.97
2023-05-21T09:56:58.128Z,100534.13
2023-05-21T09:59:35.389Z,100529.94
2023-05-21T10:02:02.782Z,100526.19
2023-05-21T10:04:31.815Z,100539.88
2023-05-21T10:07:01.011Z,100530.03
2023-05-21T10:09:29.953Z,100526.13
2023-05-21T10:11:58.710Z,100518.78
2023-05-21T10:14:32.025Z,100526.84
2023-05-21T10:17:00.670Z,100526.81
2023-05-21T10:19:30.658Z,100523.59
2023-05-21T10:21:59.387Z,100510.47
2023-05-21T10:24:27.406Z,100514.03
2023-05-21T10:26:54.920Z,100506.09
2023-05-21T10:29:23.332Z,100513.38
2023-05-21T10:31:52.988Z,100518.16
2023-05-21T10:34:22.922Z,100536.28
2023-05-21T10:36:52.775Z,100519.00
2023-05-21T10:39:22.448Z,100527.19
2023-05-21T10:42:01.698Z,100525.75
2023-05-21T10:44:39.978Z,100523.94
2023-05-21T10:47:30.090Z,100512.63
2023-05-21T10:50:09.204Z,100524.06
2023-05-21T10:52:58.278Z,100529.88
2023-05-21T10:55:40.743Z,100528.16
2023-05-21T10:58:30.341Z,100523.69
2023-05-21T11:01:01.846Z,100534.47
2023-05-21T11:03:30.558Z,100527.66
2023-05-21T11:05:58.176Z,100536.13
2023-05-21T11:08:27.967Z,100529.28
2023-05-21T11:10:59.211Z,100531.91
2023-05-21T11:13:28.000Z,100543.03
2023-05-21T11:15:58.258Z,100542.13
2023-05-21T11:18:35.827Z,100532.22
2023-05-21T11:21:15.724Z,100531.53
2023-05-21T11:23:51.857Z,100540.75
2023-05-21T11:26:20.130Z,100525.59
2023-05-21T11:28:51.019Z,100540.31
2023-05-21T11:31:28.115Z,100539.56
2023-05-21T11:34:14.807Z,100531.63
2023-05-21T11:37:02.572Z,100526.88
2023-05-21T11:39:29.804Z,100523.03
2023-05-21T11:42:04.584Z,100527.09
2023-05-21T11:44:41.436Z,100519.56
2023-05-21T11:47:11.108Z,100523.91
2023-05-21T11:49:39.363Z,100525.97
2023-05-21T11:52:08.695Z,100527.41
2023-05-21T11:54:48.652Z,100533.03
2023-05-21T11:57:17.870Z,100524.53
2023-05-21T11:59:51.593Z,100538.09
2023-05-21T12:02:21.510Z,100531.94
2023-05-21T12:04:50.686Z,100531.69
2023-05-21T12:07:19.587Z,100540.69
2023-05-21T12:09:49.097Z,100536.34
2023-05-21T12:12:18.475Z,100527.59
2023-05-21T12:14:50.736Z,100536.03
2023-05-21T12:17:22.528Z,100542.72
2023-05-21T12:19:53.298Z,100539.81
2023-05-21T12:22:21.468Z,100544.25
2023-05-21T12:24:48.952Z,100531.53
2023-05-21T12:27:16.944Z,100539.03
2023-05-21T12:29:51.769Z,100544.84
2023-05-21T12:32:21.974Z,100543.19
2023-05-21T12:34:50.229Z,100547.75
2023-05-21T12:37:28.101Z,100540.78
2023-05-21T12:39:58.297Z,100544.88
2023-05-21T12:42:27.384Z,100539.22
2023-05-21T12:44:54.733Z,100532.22
2023-05-21T12:47:27.013Z,100540.22
2023-05-21T12:49:58.133Z,100535.53
2023-05-21T12:52:27.266Z,100529.72
2023-05-21T12:54:56.704Z,100526.69
2023-05-21T12:57:37.174Z,100529.44
2023-05-21T13:00:09.549Z,100533.88
2023-05-21T13:02:45.910Z,100526.75
2023-05-21T13:05:18.295Z,100526.81
2023-05-21T13:07:51.723Z,100526.97
2023-05-21T13:10:19.024Z,100524.56
2023-05-21T13:12:48.207Z,100531.94
2023-05-21T13:15:15.682Z,100534.88
2023-05-21T13:17:42.922Z,100541.22
2023-05-21T13:20:20.125Z,100520.75
2023-05-21T13:22:49.669Z,100539.50
2023-05-21T13:25:22.475Z,100536.81
2023-05-21T13:27:50.823Z,100540.25
2023-05-21T13:30:19.316Z,100535.25
2023-05-21T13:32:46.921Z,100549.19
2023-05-21T13:35:16.724Z,100541.72
2023-05-21T13:37:45.212Z,100535.97
2023-05-21T13:40:17.199Z,100540.03
2023-05-21T13:42:45.875Z,100547.31
2023-05-21T13:45:14.990Z,100543.56
2023-05-21T13:47:43.388Z,100548.75
2023-05-21T13:50:11.633Z,100550.78
2023-05-21T13:52:39.392Z,100542.06
2023-05-21T13:55:07.072Z,100541.38
2023-05-21T13:57:34.360Z,100544.31
2023-05-21T14:00:01.828Z,100533.59
2023-05-21T14:02:36.274Z,100540.03
2023-05-21T14:05:03.637Z,100532.03
2023-05-21T14:07:33.245Z,100530.22
2023-05-21T14:10:00.724Z,100535.44
2023-05-21T14:12:28.571Z,100540.63
2023-05-21T14:14:55.879Z,100533.69
2023-05-21T14:17:23.200Z,100539.94
2023-05-21T14:19:50.556Z,100534.78
2023-05-21T14:22:17.797Z,100525.81
2023-05-21T14:24:44.960Z,100535.16
2023-05-21T14:27:14.577Z,100530.38
2023-05-21T14:29:42.608Z,100534.47
2023-05-21T14:32:09.813Z,100533.19
2023-05-21T14:34:38.615Z,100530.78
2023-05-21T14:37:06.296Z,100528.75
2023-05-21T14:39:33.458Z,100531.28
2023-05-21T14:42:00.825Z,100526.19
2023-05-21T14:44:27.987Z,100529.91
2023-05-21T14:46:55.183Z,100526.19
2023-05-21T14:49:22.417Z,100525.19
2023-05-21T14:51:49.617Z,100529.47
2023-05-21T14:54:16.752Z,100539.50
2023-05-21T14:56:44.023Z,100519.50
2023-05-21T14:59:12.985Z,100533.66
2023-05-21T15:01:40.595Z,100528.84
2023-05-21T15:04:08.262Z,100542.66
2023-05-21T15:06:35.677Z,100531.16
2023-05-21T15:09:02.961Z,100535.91
2023-05-21T15:11:30.332Z,100528.06
2023-05-21T15:13:57.861Z,100511.28
2023-05-21T15:16:25.156Z,100535.72
2023-05-21T15:18:53.635Z,100525.50
2023-05-21T15:21:20.868Z,100518.22
2023-05-21T15:23:48.173Z,100522.47
2023-05-21T15:26:15.376Z,100517.25
2023-05-21T15:28:42.581Z,100525.75
2023-05-21T15:31:09.715Z,100526.03
2023-05-21T15:33:37.138Z,100521.53
2023-05-21T15:36:04.698Z,100514.84
2023-05-21T15:38:32.911Z,100519.00
2023-05-21T15:41:00.162Z,100523.47
2023-05-21T15:43:27.377Z,100520.59
2023-05-21T15:45:54.630Z,100521.41
2023-05-21T15:48:23.111Z,100516.78
2023-05-21T15:50:50.694Z,100511.31
2023-05-21T15:53:17.945Z,100514.00
2023-05-21T15:55:45.424Z,100529.31
2023-05-21T15:58:12.652Z,100518.00
2023-05-21T16:00:40.005Z,100508.38
2023-05-21T16:03:07.931Z,100515.41
2023-05-21T16:05:35.484Z,100526.16
2023-05-21T16:08:02.870Z,100529.06
2023-05-21T16:10:30.302Z,100528.25
2023-05-21T16:12:57.465Z,100527.84
2023-05-21T16:15:24.592Z,100529.00
2023-05-21T16:17:51.761Z,100536.50
2023-05-21T16:20:19.104Z,100545.09
2023-05-21T16:22:46.677Z,100544.84
2023-05-21T16:25:13.819Z,100539.81
2023-05-21T16:27:41.040Z,100529.25
2023-05-21T16:30:08.737Z,100539.50
2023-05-21T16:32:35.980Z,100533.34
2023-05-21T16:35:03.435Z,100540.00
2023-05-21T16:37:32.211Z,100541.66
2023-05-21T16:39:59.391Z,100545.66
2023-05-21T16:42:26.620Z,100540.47
2023-05-21T16:44:53.748Z,100535.66
2023-05-21T16:47:21.589Z,100538.59
2023-05-21T16:49:48.824Z,100542.59
2023-05-21T16:52:34.489Z,100536.03
2023-05-21T16:55:02.058Z,100532.44
2023-05-21T16:57:29.662Z,100530.50
2023-05-21T16:59:56.829Z,100541.22
2023-05-21T17:02:24.951Z,100527.81
2023-05-21T17:04:52.156Z,100533.78
2023-05-21T17:07:19.866Z,100527.41
2023-05-21T17:09:47.030Z,100535.50
2023-05-21T17:12:14.279Z,100532.41
2023-05-21T17:14:41.495Z,100541.44
2023-05-21T17:17:08.843Z,100539.94
2023-05-21T17:19:36.105Z,100534.88
2023-05-21T17:22:03.480Z,100533.41
2023-05-21T17:24:30.967Z,100541.22
2023-05-21T17:26:58.181Z,100546.19
2023-05-21T17:29:25.476Z,100538.59
2023-05-21T17:31:52.940Z,100544.56
2023-05-21T17:34:20.080Z,100549.50
2023-05-21T17:36:47.204Z,100549.91
2023-05-21T17:39:14.407Z,100550.25
2023-05-21T17:41:41.551Z,100545.66
2023-05-21T17:44:08.677Z,100555.13
2023-05-21T17:46:35.927Z,100554.69
2023-05-21T17:49:03.139Z,100558.34
2023-05-21T17:51:31.616Z,100555.38
2023-05-21T17:53:59.102Z,100550.81
2023-05-21T17:56:29.151Z,100559.81
2023-05-21T17:58:56.282Z,100556.47
2023-05-21T18:01:23.465Z,100565.50
2023-05-21T18:03:50.725Z,100553.56
2023-05-21T18:06:17.954Z,100560.53
2023-05-21T18:08:45.069Z,100558.06
2023-05-21T18:11:12.195Z,100561.72
2023-05-21T18:13:39.408Z,100557.56
2023-05-21T18:16:06.697Z,100554.97
2023-05-21T18:18:33.913Z,100562.69
2023-05-21T18:21:01.369Z,100562.78
2023-05-21T18:23:30.665Z,100546.56
2023-05-21T18:25:57.847Z,100557.88
2023-05-21T18:28:25.059Z,100561.19
2023-05-21T18:30:52.178Z,100558.22
2023-05-21T18:33:20.891Z,100558.03
2023-05-21T18:35:48.003Z,100555.44
2023-05-21T18:38:15.147Z,100559.72
2023-05-21T18:40:42.701Z,100567.06
2023-05-21T18:43:10.988Z,100567.25
2023-05-21T18:45:38.126Z,100561.44
2023-05-21T18:48:05.651Z,100555.84
2023-05-21T18:50:34.465Z,100552.25
2023-05-21T18:53:01.821Z,100558.25
2023-05-21T18:55:31.906Z,100542.53
2023-05-21T18:57:59.120Z,100562.28
2023-05-21T19:00:28.401Z,100560.97
2023-05-21T19:02:56.465Z,100560.84
2023-05-21T19:05:26.162Z,100571.50
2023-05-21T19:07:53.333Z,100569.72
2023-05-21T19:10:20.575Z,100562.94
2023-05-21T19:12:47.864Z,100568.41
2023-05-21T19:15:15.890Z,100561.13
2023-05-21T19:17:43.202Z,100571.72
2023-05-21T19:20:10.757Z,100560.78
2023-05-21T19:22:38.136Z,100553.78
2023-05-21T19:25:05.968Z,100563.59
2023-05-21T19:27:34.693Z,100564.44
2023-05-21T19:30:02.043Z,100568.09
2023-05-21T19:32:34.683Z,100562.19
2023-05-21T19:35:04.693Z,100570.78
2023-05-21T19:37:33.984Z,100569.34
2023-05-21T19:40:01.341Z,100569.66
2023-05-21T19:42:34.848Z,100563.38
2023-05-21T19:45:04.480Z,100550.31
2023-05-21T19:47:34.307Z,100563.91
2023-05-21T19:50:01.469Z,100562.59
2023-05-21T19:52:31.389Z,100568.25
2023-05-21T19:55:05.026Z,100561.97
2023-05-21T19:57:34.980Z,100575.09
2023-05-21T20:00:05.330Z,100549.38
2023-05-21T20:02:41.652Z,100571.63
2023-05-21T20:05:09.511Z,100570.63
2023-05-21T20:07:36.682Z,100559.38
2023-05-21T20:10:04.513Z,100562.84
2023-05-21T20:12:33.305Z,100560.69
2023-05-21T20:15:21.331Z,100566.66
2023-05-21T20:17:50.532Z,100570.31
2023-05-21T20:20:18.899Z,100562.34
2023-05-21T20:22:46.113Z,100565.31
2023-05-21T20:25:13.245Z,100567.31
2023-05-21T20:27:41.606Z,100559.03
2023-05-21T20:30:09.195Z,100564.34
2023-05-21T20:32:37.437Z,100569.66
2023-05-21T20:35:05.244Z,100574.31
2023-05-21T20:37:33.980Z,100573.19
2023-05-21T20:40:01.249Z,100580.16
2023-05-21T20:42:34.377Z,100574.34
2023-05-21T20:45:03.227Z,100577.00
2023-05-21T20:47:38.527Z,100567.53
2023-05-21T20:50:06.448Z,100578.34
2023-05-21T20:52:33.687Z,100585.94
2023-05-21T20:55:04.630Z,100588.25
2023-05-21T20:57:33.381Z,100586.13
2023-05-21T21:00:00.979Z,100570.00
2023-05-21T21:02:30.059Z,100580.59
2023-05-21T21:04:58.047Z,100584.91
2023-05-21T21:07:25.218Z,100566.03
2023-05-21T21:09:52.425Z,100598.59
2023-05-21T21:12:25.298Z,100586.97
2023-05-21T21:14:53.178Z,100576.50
2023-05-21T21:17:20.613Z,100579.97
2023-05-21T21:19:47.877Z,100588.41
2023-05-21T21:22:16.232Z,100570.03
2023-05-21T21:24:43.752Z,100582.97
2023-05-21T21:27:10.988Z,100584.97
2023-05-21T21:29:38.423Z,100576.81
2023-05-21T21:32:06.296Z,100575.34
2023-05-21T21:34:33.520Z,100579.34
2023-05-21T21:37:00.882Z,100567.72
2023-05-21T21:39:28.257Z,100583.28
2023-05-21T21:41:55.896Z,100575.84
2023-05-21T21:44:23.036Z,100575.69
2023-05-21T21:46:50.134Z,100570.69
2023-05-21T21:49:17.634Z,100567.72
2023-05-21T21:51:45.742Z,100568.09
2023-05-21T21:54:13.038Z,100569.06
2023-05-21T21:56:40.232Z,100569.75
2023-05-21T21:59:07.590Z,100567.72
2023-05-21T22:01:36.080Z,100562.09
2023-05-21T22:04:03.504Z,100561.41
2023-05-21T22:06:31.421Z,100565.88
2023-05-21T22:08:58.882Z,100564.41
2023-05-21T22:11:27.155Z,100566.88
2023-05-21T22:13:54.534Z,100571.69
2023-05-21T22:16:21.845Z,100556.59
2023-05-21T22:18:50.243Z,100556.78
2023-05-21T22:21:18.575Z,100542.16
2023-05-21T22:23:45.828Z,100560.09
2023-05-21T22:26:13.084Z,100563.44
2023-05-21T22:28:40.259Z,100553.47
2023-05-21T22:31:07.975Z,100556.28
2023-05-21T22:33:35.309Z,100542.84
2023-05-21T22:36:02.675Z,100541.19
2023-05-21T22:38:30.251Z,100548.16
2023-05-21T22:40:57.483Z,100550.28
2023-05-21T22:43:25.785Z,100534.88
2023-05-21T22:45:53.090Z,100539.38
2023-05-21T22:48:22.089Z,100540.84
2023-05-21T22:50:50.462Z,100539.53
2023-05-21T22:53:17.839Z,100531.75
2023-05-21T22:55:45.031Z,100538.19
2023-05-21T22:58:12.263Z,100552.47
2023-05-21T23:00:39.570Z,100542.19
2023-05-21T23:03:06.973Z,100543.34
2023-05-21T23:05:34.268Z,100549.31
2023-05-21T23:08:01.556Z,100544.03
2023-05-21T23:10:28.807Z,100548.97
2023-05-21T23:12:55.984Z,100542.19
2023-05-21T23:15:24.475Z,100547.50
2023-05-21T23:17:51.702Z,100547.16
2023-05-21T23:20:18.977Z,100550.47
2023-05-21T23:22:46.305Z,100544.50
2023-05-21T23:25:13.510Z,100543.94
2023-05-21T23:27:40.747Z,100545.78
2023-05-21T23:30:09.061Z,100546.31
2023-05-21T23:32:36.179Z,100551.78
2023-05-21T23:35:03.462Z,100551.16
2023-05-21T23:37:32.831Z,100544.34
2023-05-21T23:39:59.972Z,100540.34
2023-05-21T23:42:27.161Z,100543.50
2023-05-21T23:44:54.355Z,100555.78
2023-05-21T23:47:21.529Z,100562.38
2023-05-21T23:49:48.698Z,100565.81
2023-05-21T23:52:18.335Z,100569.63
2023-05-21T23:54:45.536Z,100544.47
2023-05-21T23:57:13.542Z,100554.25
2023-05-21T23:59:40.963Z,100556.09
